Time;durP1;ratioP1;P1;durP2;ratioP2;P2;SDS_P1;SDS_P2;PMS_P1;PMS_P2;Temp;Humidity;BMP_temperature;BMP_pressure;BME280_temperature;BME280_humidity;BME280_pressure;Samples;Min_cycle;Max_cycle;Signal;HPM_P1;HPM_P2
2023/01/16 00:02:16;;;;;;;;;2.00;1.00;;;;;9.11;64.40;99208.69;5093289;27;45142;-69
2023/01/16 00:04:41;;;;;;;;;0.00;0.00;;;;;8.95;63.39;99179.25;5111257;27;45104;-67
2023/01/16 00:07:07;;;;;;;;;0.50;0.50;;;;;9.02;63.84;99181.09;5093158;27;67284;-70
2023/01/16 00:09:32;;;;;;;;;1.00;1.00;;;;;9.13;63.94;99173.16;5108774;27;45285;-68
2023/01/16 00:11:57;;;;;;;;;0.75;0.00;;;;;9.14;64.14;99152.72;5113280;27;45068;-69
2023/01/16 00:14:23;;;;;;;;;1.50;1.00;;;;;9.10;63.91;99125.19;5112022;27;45309;-66
2023/01/16 00:16:48;;;;;;;;;3.25;1.25;;;;;9.28;63.89;99112.88;5112246;27;47637;-66
2023/01/16 00:19:13;;;;;;;;;3.00;1.75;;;;;9.27;63.43;99121.72;5111008;27;45224;-62
2023/01/16 00:21:39;;;;;;;;;0.00;0.00;;;;;8.38;64.09;98963.19;5113541;27;45123;-65
2023/01/16 00:24:06;;;;;;;;;1.00;1.00;;;;;9.21;64.32;99098.63;5113609;27;45188;-68
2023/01/16 00:26:32;;;;;;;;;0.00;0.00;;;;;9.21;64.28;99080.84;5111888;27;46425;-64
2023/01/16 00:28:57;;;;;;;;;1.00;0.50;;;;;9.17;63.91;99057.75;5104728;27;45296;-67
2023/01/16 00:31:23;;;;;;;;;2.25;1.00;;;;;9.16;63.50;99039.97;5112204;27;45444;-68
2023/01/16 00:33:49;;;;;;;;;0.75;0.75;;;;;9.11;63.61;99024.88;5116044;27;45254;-66
2023/01/16 00:36:14;;;;;;;;;1.00;1.00;;;;;9.08;64.99;99008.88;5098700;27;59887;-66
2023/01/16 00:38:40;;;;;;;;;1.00;1.00;;;;;9.08;63.97;98990.22;5117135;27;45211;-68
2023/01/16 00:41:05;;;;;;;;;4.00;0.75;;;;;8.85;64.37;98940.41;5113864;27;45162;-68
2023/01/16 00:43:32;;;;;;;;;4.50;4.50;;;;;9.14;64.35;98975.13;5099659;27;45303;-68
2023/01/16 00:45:57;;;;;;;;;8.50;2.00;;;;;9.19;64.87;98949.41;5110805;27;45574;-63
2023/01/16 00:48:23;;;;;;;;;1.00;1.00;;;;;9.19;64.16;98927.19;5108722;27;45201;-67
2023/01/16 00:50:49;;;;;;;;;2.33;2.33;;;;;9.21;64.00;98909.44;5115707;27;45242;-70
2023/01/16 00:53:14;;;;;;;;;4.67;1.00;;;;;9.19;64.40;98895.22;5114324;27;45194;-69
2023/01/16 00:55:41;;;;;;;;;1.00;1.00;;;;;9.20;64.42;98884.53;5113731;27;45569;-69
2023/01/16 00:58:10;;;;;;;;;3.00;1.00;;;;;9.20;63.59;98878.34;5094521;27;45226;-70
2023/01/16 01:00:37;;;;;;;;;2.00;1.00;;;;;9.20;63.83;98862.34;5110006;27;45109;-70
2023/01/16 01:03:03;;;;;;;;;3.00;1.00;;;;;9.22;63.99;98837.50;5103262;27;44952;-70
2023/01/16 01:05:34;;;;;;;;;1.00;1.00;;;;;9.22;64.04;98815.28;5109174;27;45535;-69
2023/01/16 01:07:59;;;;;;;;;3.00;0.00;;;;;9.25;63.60;98809.94;5101423;27;45414;-69
2023/01/16 01:10:24;;;;;;;;;2.00;0.00;;;;;9.20;63.26;98791.28;5110018;27;45021;-66
2023/01/16 01:12:53;;;;;;;;;0.67;0.00;;;;;9.28;63.99;98780.66;5106844;27;45569;-69
2023/01/16 01:15:19;;;;;;;;;0.67;0.00;;;;;9.06;64.37;98739.81;5112609;27;45069;-66
2023/01/16 01:17:44;;;;;;;;;0.00;0.00;;;;;9.17;63.41;98746.03;5111413;27;45153;-68
2023/01/16 01:20:10;;;;;;;;;1.67;0.33;;;;;9.17;64.15;98742.44;5112984;27;44988;-71
2023/01/16 01:22:35;;;;;;;;;1.00;1.00;;;;;9.16;63.77;98714.94;5112557;27;45121;-68
2023/01/16 01:25:00;;;;;;;;;1.33;0.00;;;;;9.16;64.04;98701.59;5115102;27;45096;-65
2023/01/16 01:27:26;;;;;;;;;3.00;1.00;;;;;9.22;63.97;98693.63;5100523;27;51018;-67
2023/01/16 01:29:51;;;;;;;;;2.00;0.33;;;;;9.24;63.56;98674.97;5095484;27;45522;-67
2023/01/16 01:32:16;;;;;;;;;0.00;0.00;;;;;9.01;63.48;98617.28;5082967;27;45011;-69
2023/01/16 01:34:42;;;;;;;;;0.67;0.00;;;;;9.18;64.10;98638.53;5114798;27;45151;-67
2023/01/16 01:37:10;;;;;;;;;0.67;0.00;;;;;9.14;63.55;98599.50;5111376;27;45287;-68
2023/01/16 01:39:35;;;;;;;;;0.00;0.00;;;;;9.19;63.77;98610.16;5114705;27;44869;-64
2023/01/16 01:45:07;;;;;;;;;3.33;0.00;;;;;9.17;64.56;98567.53;5087555;27;45746;-69
2023/01/16 01:47:35;;;;;;;;;0.00;0.00;;;;;9.15;64.34;98555.97;5109858;27;45448;-71
2023/01/16 01:50:04;;;;;;;;;2.00;1.00;;;;;9.15;65.06;98541.78;5108957;27;45075;-67
2023/01/16 01:52:32;;;;;;;;;0.00;0.00;;;;;8.92;65.31;98492.13;5110191;27;45075;-69
2023/01/16 01:55:03;;;;;;;;;0.00;0.00;;;;;9.08;66.00;98513.41;5112807;27;45418;-67
2023/01/16 01:57:41;;;;;;;;;0.33;0.33;;;;;8.99;65.96;98475.25;5100333;27;45349;-68
2023/01/16 02:00:15;;;;;;;;;0.33;0.00;;;;;9.12;66.60;98472.50;5103706;27;45504;-69
2023/01/16 02:02:54;;;;;;;;;0.00;0.00;;;;;9.02;66.95;98456.59;5102091;27;45256;-68
2023/01/16 02:05:26;;;;;;;;;3.67;1.00;;;;;9.01;67.25;98464.59;5091434;27;45793;-66
2023/01/16 02:07:52;;;;;;;;;0.00;0.00;;;;;8.97;67.82;98414.88;5102603;27;45469;-68
2023/01/16 02:10:29;;;;;;;;;1.00;0.00;;;;;9.08;66.95;98415.72;5100330;27;45659;-70
2023/01/16 02:12:55;;;;;;;;;0.33;0.00;;;;;9.08;67.06;98406.84;5098607;27;45373;-70
2023/01/16 02:15:22;;;;;;;;;0.00;0.00;;;;;8.89;67.90;98388.28;5104183;27;45541;-69
2023/01/16 02:20:57;;;;;;;;;1.00;1.00;;;;;8.91;69.79;98366.97;5101527;27;45420;-64
2023/01/16 02:23:34;;;;;;;;;1.67;0.00;;;;;8.82;69.02;98350.16;5089047;27;45366;-66
2023/01/16 02:26:41;;;;;;;;;0.00;0.00;;;;;8.66;70.40;98325.41;5094511;27;46454;-67
2023/01/16 02:29:20;;;;;;;;;0.00;0.00;;;;;8.60;70.09;98306.78;5045660;27;45342;-66
2023/01/16 02:32:10;;;;;;;;;1.67;1.67;;;;;8.65;70.82;98317.44;5091005;27;45314;-65
2023/01/16 02:35:01;;;;;;;;;0.00;0.00;;;;;8.64;71.11;98307.66;5084439;27;45412;-69
2023/01/16 02:37:47;;;;;;;;;0.00;0.00;;;;;8.60;71.03;98274.00;5074211;27;46324;-68
2023/01/16 02:40:28;;;;;;;;;0.50;0.00;;;;;8.61;71.43;98275.72;5096638;27;45378;-68
2023/01/16 02:43:23;;;;;;;;;0.00;0.00;;;;;8.57;70.48;98279.31;5089198;27;45350;-69
2023/01/16 02:46:08;;;;;;;;;1.00;0.00;;;;;8.51;71.75;98255.41;5084551;27;45186;-67
2023/01/16 02:48:45;;;;;;;;;1.75;0.00;;;;;8.41;70.97;98228.78;5102145;27;45703;-67
2023/01/16 02:51:41;;;;;;;;;0.00;0.00;;;;;8.52;70.67;98239.44;5103036;27;45475;-63
2023/01/16 02:54:16;;;;;;;;;7.75;0.00;;;;;8.46;69.85;98220.81;5079693;27;45439;-69
2023/01/16 02:56:52;;;;;;;;;0.75;0.00;;;;;8.45;70.14;98190.69;5079704;27;45425;-68
2023/01/16 02:59:18;;;;;;;;;0.00;0.00;;;;;8.36;70.86;98182.72;5094858;27;46292;-65
2023/01/16 03:01:49;;;;;;;;;0.00;0.00;;;;;8.49;71.13;98188.88;5094377;27;45387;-68
2023/01/16 03:04:36;;;;;;;;;1.00;0.00;;;;;8.56;71.02;98189.72;5085322;27;45571;-64
2023/01/16 03:07:24;;;;;;;;;0.50;0.00;;;;;8.53;69.38;98169.34;5103955;27;45170;-67
2023/01/16 03:10:02;;;;;;;;;0.00;0.00;;;;;8.47;69.78;98161.41;5099989;27;46227;-67
2023/01/16 03:12:37;;;;;;;;;0.00;0.00;;;;;8.44;70.87;98153.44;5084435;27;45147;-69
2023/01/16 03:15:19;;;;;;;;;0.00;0.00;;;;;8.41;70.70;98154.28;5075806;28;45654;-68
2023/01/16 03:17:47;;;;;;;;;0.00;0.00;;;;;8.39;71.05;98131.28;5076933;28;45453;-68
2023/01/16 03:20:29;;;;;;;;;0.00;0.00;;;;;8.38;71.65;98130.41;5074264;28;46064;-69
2023/01/16 03:23:36;;;;;;;;;0.00;0.00;;;;;8.33;71.30;98123.31;5086969;28;45012;-71
2023/01/16 03:26:34;;;;;;;;;0.00;0.00;;;;;8.23;71.21;98102.13;5053290;28;45649;-68
2023/01/16 03:29:14;;;;;;;;;0.00;0.00;;;;;8.27;72.38;98108.31;5063108;28;45482;-64
2023/01/16 03:31:52;;;;;;;;;0.00;0.00;;;;;8.22;71.41;98112.78;5077796;28;45468;-67
2023/01/16 03:34:30;;;;;;;;;0.00;0.00;;;;;8.12;71.80;98080.03;5053092;28;45726;-67
2023/01/16 03:37:11;;;;;;;;;0.00;0.00;;;;;8.12;72.20;98085.38;5071185;28;45445;-68
2023/01/16 03:39:43;;;;;;;;;1.00;0.00;;;;;8.03;72.62;98077.44;5084394;28;45492;-68
2023/01/16 03:42:15;;;;;;;;;0.00;0.00;;;;;7.98;72.09;98068.59;5070120;28;45539;-68
2023/01/16 03:44:49;;;;;;;;;0.00;0.00;;;;;8.08;72.24;98086.25;5080366;28;45310;-68
2023/01/16 03:47:23;;;;;;;;;0.00;0.00;;;;;8.02;72.61;98057.94;5080891;28;45447;-67
2023/01/16 03:49:56;;;;;;;;;0.00;0.00;;;;;8.12;73.22;98038.38;5080961;28;45516;-67
2023/01/16 03:52:27;;;;;;;;;0.25;0.00;;;;;8.05;72.32;98022.47;5076816;28;45468;-68
2023/01/16 03:54:57;;;;;;;;;0.00;0.00;;;;;8.11;71.89;98030.41;5028986;28;45533;-67
2023/01/16 03:57:27;;;;;;;;;0.00;0.00;;;;;8.07;72.88;98015.38;5083659;28;45277;-67
2023/01/16 03:59:53;;;;;;;;;0.00;0.00;;;;;8.04;72.23;98007.41;5083739;28;45585;-66
2023/01/16 04:02:39;;;;;;;;;0.25;0.00;;;;;8.08;72.06;98014.47;5069130;28;46468;-67
2023/01/16 04:05:23;;;;;;;;;0.00;0.00;;;;;8.04;72.02;98010.09;5072518;27;45363;-67
2023/01/16 04:08:01;;;;;;;;;0.00;0.00;;;;;7.89;71.40;98000.44;5083896;28;45386;-67
2023/01/16 04:10:31;;;;;;;;;0.00;0.00;;;;;7.93;71.88;97999.50;5081531;28;45345;-68
2023/01/16 04:13:03;;;;;;;;;0.00;0.00;;;;;7.96;70.26;97999.50;5071830;27;46578;-62
2023/01/16 04:15:32;;;;;;;;;0.00;0.00;;;;;7.97;70.54;97979.09;5073072;28;45394;-66
2023/01/16 04:17:58;;;;;;;;;3.00;0.00;;;;;7.96;70.06;97975.56;5062812;28;45367;-68
2023/01/16 04:20:25;;;;;;;;;1.00;0.00;;;;;7.96;70.57;97961.41;5058678;28;45851;-68
2023/01/16 04:22:51;;;;;;;;;0.00;0.00;;;;;7.75;70.22;97924.34;5076447;28;45508;-67
2023/01/16 04:25:18;;;;;;;;;0.00;0.00;;;;;7.89;71.02;97926.88;5076006;28;45338;-68
2023/01/16 04:27:44;;;;;;;;;0.00;0.00;;;;;8.00;70.28;97950.75;5076628;28;45431;-69
2023/01/16 04:30:10;;;;;;;;;0.00;0.00;;;;;7.97;69.43;97937.47;5062837;28;45537;-69
2023/01/16 04:32:35;;;;;;;;;0.00;0.00;;;;;7.94;69.83;97925.06;5075664;28;46672;-67
2023/01/16 04:35:01;;;;;;;;;1.00;0.00;;;;;8.05;70.44;97926.75;5069912;28;45297;-67
2023/01/16 04:37:26;;;;;;;;;0.00;0.00;;;;;8.05;69.31;97914.34;5076582;28;45576;-69
2023/01/16 04:39:52;;;;;;;;;1.00;0.00;;;;;8.07;68.79;97906.34;5078009;28;45277;-68
2023/01/16 04:42:17;;;;;;;;;0.75;0.00;;;;;8.06;69.11;97904.59;5082470;28;46036;-67
2023/01/16 04:44:43;;;;;;;;;0.00;0.00;;;;;8.10;69.39;97899.22;5067927;28;45676;-67
2023/01/16 04:47:09;;;;;;;;;0.00;0.00;;;;;8.11;68.78;97873.50;5073260;28;45416;-68
2023/01/16 04:49:34;;;;;;;;;1.00;0.00;;;;;8.17;68.24;97886.75;5085870;28;45500;-70
2023/01/16 04:52:00;;;;;;;;;0.00;0.00;;;;;8.07;69.31;97837.22;5068656;28;46086;-62
2023/01/16 04:54:25;;;;;;;;;1.25;1.25;;;;;8.17;69.68;97862.81;5051097;28;45578;-64
2023/01/16 04:56:50;;;;;;;;;0.00;0.00;;;;;8.13;69.21;97831.81;5076241;28;45416;-67
2023/01/16 04:59:17;;;;;;;;;0.00;0.00;;;;;8.11;68.32;97836.28;5058483;28;45476;-66
2023/01/16 05:01:43;;;;;;;;;1.33;1.00;;;;;8.16;69.43;97810.50;5077978;28;46138;-66
2023/01/16 05:04:09;;;;;;;;;0.00;0.00;;;;;8.06;69.63;97776.97;5073528;27;45665;-68
2023/01/16 05:06:35;;;;;;;;;1.25;0.00;;;;;8.27;69.48;97805.97;5073142;28;45726;-68
2023/01/16 05:09:02;;;;;;;;;0.50;0.50;;;;;8.37;69.54;97784.56;5063094;28;45418;-67
2023/01/16 05:11:28;;;;;;;;;0.00;0.00;;;;;8.43;69.03;97782.75;5072767;28;46999;-67
2023/01/16 05:13:54;;;;;;;;;0.00;0.00;;;;;8.36;69.73;97753.53;5073308;28;45274;-66
2023/01/16 05:16:19;;;;;;;;;3.00;0.00;;;;;8.51;69.83;97764.00;5079655;28;45326;-69
2023/01/16 05:18:45;;;;;;;;;0.00;0.00;;;;;8.56;70.52;97743.53;5081982;28;45573;-69
2023/01/16 05:21:10;;;;;;;;;0.00;0.00;;;;;8.61;69.88;97730.16;5061371;28;47077;-70
2023/01/16 05:23:37;;;;;;;;;0.00;0.00;;;;;7.75;70.99;97585.94;5078024;28;44955;-70
2023/01/16 05:26:04;;;;;;;;;0.00;0.00;;;;;8.30;71.10;97669.41;5087377;28;45236;-69
2023/01/16 05:28:29;;;;;;;;;2.00;1.00;;;;;8.47;71.01;97675.38;5083284;28;45335;-69
2023/01/16 05:30:55;;;;;;;;;2.00;0.00;;;;;8.56;70.37;97700.09;5076549;28;45422;-67
2023/01/16 05:33:21;;;;;;;;;0.00;0.00;;;;;8.57;70.78;97694.75;5079694;27;45484;-69
2023/01/16 05:35:47;;;;;;;;;0.25;0.00;;;;;8.55;70.24;97695.69;5078031;28;44789;-68
2023/01/16 05:38:13;;;;;;;;;0.00;0.00;;;;;8.54;70.73;97684.13;5095274;28;45040;-69
2023/01/16 05:40:39;;;;;;;;;0.00;0.00;;;;;8.54;70.12;97665.50;5081462;28;45645;-69
2023/01/16 05:43:04;;;;;;;;;0.25;0.25;;;;;8.54;70.49;97657.53;5083545;28;45519;-68
2023/01/16 05:45:30;;;;;;;;;0.00;0.00;;;;;8.57;70.79;97654.81;5083220;28;45472;-65
2023/01/16 05:47:55;;;;;;;;;0.50;0.50;;;;;8.59;70.67;97661.00;5077887;28;45466;-69
2023/01/16 05:50:20;;;;;;;;;0.00;0.00;;;;;8.62;71.57;97650.31;5081782;28;45413;-69
2023/01/16 05:52:46;;;;;;;;;0.50;0.00;;;;;8.64;70.20;97651.16;5077813;28;45296;-70
2023/01/16 05:55:11;;;;;;;;;3.00;0.00;;;;;8.65;69.07;97634.28;5077625;28;45283;-68
2023/01/16 05:57:36;;;;;;;;;0.50;0.00;;;;;8.62;69.65;97644.97;5081056;28;45275;-69
2023/01/16 06:00:03;;;;;;;;;0.00;0.00;;;;;8.65;68.90;97634.28;5079458;27;52639;-67
2023/01/16 06:02:28;;;;;;;;;1.00;0.00;;;;;8.64;68.77;97626.34;5083793;28;45457;-70
2023/01/16 06:04:54;;;;;;;;;0.50;0.00;;;;;8.64;69.19;97623.69;5070527;28;45336;-68
2023/01/16 06:07:19;;;;;;;;;0.00;0.00;;;;;8.65;69.92;97628.97;5082906;28;45470;-68
2023/01/16 06:09:44;;;;;;;;;2.00;0.25;;;;;8.64;69.15;97627.19;5077607;28;46114;-67
2023/01/16 06:12:15;;;;;;;;;3.00;0.25;;;;;8.64;68.24;97623.69;5075727;28;53589;-67
2023/01/16 06:14:40;;;;;;;;;0.00;0.00;;;;;8.53;69.03;97589.28;5064306;28;45395;-67
2023/01/16 06:17:05;;;;;;;;;3.00;0.00;;;;;8.69;67.69;97615.63;5067291;28;45448;-69
2023/01/16 06:19:31;;;;;;;;;2.00;0.00;;;;;8.50;69.40;97568.03;5078590;28;45792;-65
2023/01/16 06:21:56;;;;;;;;;2.25;0.50;;;;;8.72;68.90;97615.56;5070748;27;55337;-69
2023/01/16 06:24:22;;;;;;;;;1.67;1.00;;;;;8.70;68.68;97596.97;5074207;27;60762;-71
2023/01/16 06:26:47;;;;;;;;;1.00;1.00;;;;;8.75;67.56;97591.56;5076263;28;45386;-70
2023/01/16 06:29:12;;;;;;;;;1.33;0.00;;;;;8.77;68.14;97587.09;5073665;27;45405;-67
2023/01/16 06:31:38;;;;;;;;;1.00;0.33;;;;;8.77;68.42;97593.28;5075384;28;45295;-68
2023/01/16 06:34:03;;;;;;;;;0.67;0.00;;;;;8.72;67.75;97580.97;5078579;28;45711;-69
2023/01/16 06:36:28;;;;;;;;;0.67;0.67;;;;;8.72;67.69;97589.81;5079534;28;45463;-67
2023/01/16 06:38:53;;;;;;;;;0.33;0.33;;;;;8.61;67.66;97570.50;5074259;28;46037;-70
2023/01/16 06:41:19;;;;;;;;;3.75;1.00;;;;;8.66;67.79;97571.28;5081886;28;45593;-70
2023/01/16 06:43:44;;;;;;;;;0.00;0.00;;;;;8.64;67.57;97581.97;5072256;28;45142;-67
2023/01/16 06:46:10;;;;;;;;;0.00;0.00;;;;;8.60;68.82;97563.44;5074278;27;45265;-68
2023/01/16 06:48:35;;;;;;;;;2.00;0.00;;;;;8.58;69.30;97563.47;5074012;27;45963;-68
2023/01/16 06:51:00;;;;;;;;;2.00;0.00;;;;;8.62;69.00;97558.97;5078650;28;52499;-68
2023/01/16 06:53:26;;;;;;;;;0.00;0.00;;;;;8.66;68.49;97555.31;5055855;28;45432;-70
2023/01/16 06:55:51;;;;;;;;;2.00;1.67;;;;;8.55;69.03;97541.34;5077453;28;45329;-71
2023/01/16 06:58:17;;;;;;;;;0.33;0.00;;;;;8.62;68.46;97532.34;5087108;28;45256;-68
2023/01/16 07:00:42;;;;;;;;;2.33;1.00;;;;;8.45;68.34;97509.56;5080216;28;45495;-68
2023/01/16 07:03:09;;;;;;;;;1.00;1.00;;;;;8.54;68.61;97499.69;5081508;28;45235;-69
2023/01/16 07:05:34;;;;;;;;;1.33;0.67;;;;;8.59;67.64;97514.66;5082365;27;45211;-69
2023/01/16 07:07:59;;;;;;;;;0.67;0.00;;;;;8.06;67.33;97410.94;5078961;28;45312;-67
2023/01/16 07:10:25;;;;;;;;;1.00;0.00;;;;;8.56;67.10;97497.84;5090532;28;45684;-68
2023/01/16 07:12:54;;;;;;;;;1.00;1.00;;;;;8.56;68.46;97496.06;5084541;27;45641;-68
2023/01/16 07:23:44;;;;;;;;;1.67;0.00;;;;;8.53;68.43;97460.66;5078702;28;45399;-68
2023/01/16 07:26:12;;;;;;;;;1.50;0.25;;;;;8.55;69.76;97453.56;5066966;28;45449;-71
2023/01/16 07:28:38;;;;;;;;;6.00;2.00;;;;;8.55;69.04;97445.56;5074227;28;47162;-68
2023/01/16 07:31:05;;;;;;;;;2.00;1.00;;;;;8.55;69.13;97426.94;5073569;28;45083;-70
2023/01/16 07:33:31;;;;;;;;;3.00;1.00;;;;;8.59;69.62;97434.81;5083285;28;45345;-69
2023/01/16 07:35:58;;;;;;;;;8.25;8.25;;;;;8.57;70.84;97414.47;5078864;28;45600;-70
2023/01/16 07:38:23;;;;;;;;;11.75;3.75;;;;;8.37;70.18;97378.47;5070728;28;45595;-67
2023/01/16 07:40:49;;;;;;;;;1.00;1.00;;;;;8.43;70.11;97382.81;5086200;28;45338;-72
2023/01/16 07:43:14;;;;;;;;;1.00;1.00;;;;;8.38;70.02;97374.00;5085775;28;45309;-72
2023/01/16 07:45:39;;;;;;;;;2.00;0.00;;;;;8.36;69.90;97365.19;5076643;28;45323;-73
2023/01/16 07:48:05;;;;;;;;;2.00;1.00;;;;;8.44;69.70;97389.91;5095245;28;45163;-70
2023/01/16 07:50:30;;;;;;;;;2.25;2.00;;;;;8.45;70.04;97386.34;5075321;28;45528;-68
2023/01/16 07:52:56;;;;;;;;;0.75;0.75;;;;;8.29;69.46;97343.16;5074739;28;44879;-70
2023/01/16 07:55:23;;;;;;;;;1.00;1.00;;;;;8.48;69.43;97362.34;5079031;28;45214;-70
2023/01/16 07:57:48;;;;;;;;;2.00;0.00;;;;;8.47;69.82;97357.91;5087878;28;45000;-61
2023/01/16 08:00:14;;;;;;;;;2.00;2.00;;;;;8.47;70.58;97349.94;5090791;28;45608;-68
2023/01/16 08:02:41;;;;;;;;;0.00;0.00;;;;;8.34;69.80;97320.00;5074058;28;46917;-65
2023/01/16 08:05:07;;;;;;;;;2.25;2.25;;;;;8.51;70.75;97338.31;5084543;28;45533;-73
2023/01/16 08:07:32;;;;;;;;;1.50;1.50;;;;;8.32;70.64;97302.34;5083835;28;45785;-68
2023/01/16 08:09:58;;;;;;;;;3.50;3.25;;;;;8.47;70.68;97328.66;5063632;28;45310;-65
2023/01/16 08:12:23;;;;;;;;;0.33;0.33;;;;;8.42;69.76;97314.53;5077723;28;45299;-71
2023/01/16 08:14:49;;;;;;;;;0.00;0.00;;;;;8.43;70.60;97316.31;5078430;28;45595;-71
2023/01/16 08:17:15;;;;;;;;;2.00;0.00;;;;;8.26;69.75;97282.91;5075431;28;46157;-70
2023/01/16 08:19:40;;;;;;;;;0.00;0.00;;;;;8.40;70.58;97303.06;5058549;28;45336;-66
2023/01/16 08:22:05;;;;;;;;;2.00;0.00;;;;;8.36;70.50;97291.59;5064008;28;45557;-63
2023/01/16 08:24:31;;;;;;;;;0.00;0.00;;;;;8.35;71.10;97286.28;5076750;28;45338;-69
2023/01/16 08:26:56;;;;;;;;;0.25;0.00;;;;;8.30;70.68;97270.47;5076686;28;45702;-66
2023/01/16 08:29:23;;;;;;;;;0.00;0.00;;;;;8.24;69.66;97250.16;5076887;28;45272;-68
2023/01/16 08:31:48;;;;;;;;;2.00;0.50;;;;;8.13;69.50;97236.22;5076093;27;45453;-68
2023/01/16 08:34:14;;;;;;;;;1.00;1.00;;;;;8.21;69.78;97244.91;5076889;28;45438;-71
2023/01/16 08:36:39;;;;;;;;;0.75;0.75;;;;;8.28;70.84;97257.19;5076764;28;45461;-71
2023/01/16 08:39:04;;;;;;;;;2.00;1.00;;;;;8.28;69.21;97249.22;5061549;28;45521;-68
2023/01/16 08:52:34;;;;;;;;;0.50;0.00;;;;;7.96;66.44;97268.47;5077161;28;45414;-66
2023/01/16 08:55:00;;;;;;;;;0.75;0.00;;;;;7.95;65.21;97272.00;5075891;28;45444;-66
2023/01/16 08:57:27;;;;;;;;;0.25;0.25;;;;;7.89;65.35;97274.81;5076479;28;46397;-71
2023/01/16 08:59:53;;;;;;;;;0.25;0.00;;;;;7.77;65.89;97248.44;5076485;28;45473;-67
2023/01/16 09:02:19;;;;;;;;;0.00;0.00;;;;;7.85;66.42;97276.66;5076613;28;45313;-68
2023/01/16 09:04:45;;;;;;;;;0.00;0.00;;;;;7.96;65.83;97286.19;5075765;28;46782;-70
2023/01/16 09:07:10;;;;;;;;;0.00;0.00;;;;;7.87;66.09;97274.84;5074776;28;45609;-68
2023/01/16 09:09:35;;;;;;;;;0.00;0.00;;;;;7.91;65.19;97296.91;5080711;28;45414;-71
2023/01/16 09:14:45;;;;;;;;;2.50;0.00;;;;;7.85;66.59;97307.66;5078990;28;45494;-68
2023/01/16 09:17:10;;;;;;;;;0.00;0.00;;;;;7.50;66.06;97256.91;5075801;28;45527;-71
2023/01/16 09:19:36;;;;;;;;;0.00;0.00;;;;;7.82;66.69;97320.97;5053653;28;45746;-70
2023/01/16 09:22:05;;;;;;;;;0.00;0.00;;;;;7.82;66.32;97339.59;5071512;28;45891;-68
2023/01/16 09:24:31;;;;;;;;;0.00;0.00;;;;;7.70;67.01;97330.91;5070648;28;45492;-67
2023/01/16 09:26:57;;;;;;;;;0.00;0.00;;;;;7.78;66.91;97349.41;5048104;28;46529;-67
2023/01/16 09:29:22;;;;;;;;;0.67;0.00;;;;;7.65;66.61;97330.13;5055661;28;51018;-70
2023/01/16 09:31:50;;;;;;;;;5.50;2.00;;;;;7.77;66.66;97368.03;5057929;28;45390;-68
2023/01/16 09:34:15;;;;;;;;;1.00;1.00;;;;;7.74;67.24;97382.25;5048991;28;45429;-70
2023/01/16 09:36:41;;;;;;;;;0.00;0.00;;;;;7.57;66.89;97383.41;5069738;28;45614;-68
2023/01/16 09:39:07;;;;;;;;;0.50;0.50;;;;;7.51;67.80;97383.50;5075012;28;45405;-69
2023/01/16 09:44:32;;;;;;;;;0.75;0.75;;;;;7.47;68.21;97413.66;5073851;28;45439;-68
2023/01/16 09:46:58;;;;;;;;;2.00;0.00;;;;;7.46;68.52;97426.97;5055053;28;48808;-70
2023/01/16 09:49:41;;;;;;;;;0.75;0.75;;;;;7.42;68.70;97428.78;5053323;28;45915;-69
2023/01/16 10:00:38;;;;;;;;;0.00;0.00;;;;;7.31;69.96;97449.28;5064649;28;45418;-68
2023/01/16 10:03:03;;;;;;;;;0.25;0.25;;;;;7.47;70.06;97468.56;5057545;28;45552;-69
2023/01/16 10:05:54;;;;;;;;;0.00;0.00;;;;;7.54;69.44;97462.28;5075730;28;45610;-71
2023/01/16 10:08:54;;;;;;;;;0.25;0.00;;;;;7.59;69.29;97464.84;5062031;28;45415;-70
2023/01/16 10:11:50;;;;;;;;;3.00;1.00;;;;;7.83;69.10;97495.50;5071628;28;45367;-70
2023/01/16 10:14:44;;;;;;;;;0.00;0.00;;;;;7.87;68.84;97505.16;5049714;28;45458;-70
2023/01/16 10:17:12;;;;;;;;;0.00;0.00;;;;;7.85;68.89;97520.25;5073498;28;45676;-70
2023/01/16 10:19:54;;;;;;;;;0.00;0.00;;;;;7.85;68.94;97523.81;5044090;28;46554;-65
2023/01/16 10:22:50;;;;;;;;;0.00;0.00;;;;;7.82;68.75;97538.91;5066693;28;45429;-65
2023/01/16 10:25:46;;;;;;;;;3.25;3.25;;;;;7.92;69.53;97546.75;5067680;28;45291;-65
2023/01/16 10:28:42;;;;;;;;;3.00;2.00;;;;;7.93;70.55;97558.25;5071430;28;45624;-63
2023/01/16 10:31:20;;;;;;;;;0.25;0.25;;;;;7.86;71.00;97568.09;5087586;28;45408;-63
2023/01/16 10:33:58;;;;;;;;;1.00;1.00;;;;;7.78;71.85;97583.25;5078477;28;46269;-68
2023/01/16 10:36:31;;;;;;;;;0.50;0.50;;;;;7.72;72.75;97588.66;5084910;28;45406;-69
2023/01/16 10:38:59;;;;;;;;;1.00;1.00;;;;;7.67;72.45;97601.13;5090366;28;45045;-69
2023/01/16 10:50:13;;;;;;;;;3.50;3.50;;;;;7.73;71.96;97656.84;5078859;28;45255;-68
2023/01/16 10:52:39;;;;;;;;;0.50;0.50;;;;;7.77;70.39;97642.63;5072291;28;45367;-68
2023/01/16 10:55:06;;;;;;;;;1.25;0.00;;;;;7.69;69.60;97644.50;5070696;28;46011;-71
2023/01/16 10:57:31;;;;;;;;;0.75;0.00;;;;;7.56;69.08;97620.72;5067396;28;45982;-70
2023/01/16 11:00:04;;;;;;;;;0.00;0.00;;;;;7.72;67.88;97673.69;5072293;28;45291;-69
2023/01/16 11:02:35;;;;;;;;;0.50;0.00;;;;;7.69;67.81;97677.25;5073372;28;45461;-69
2023/01/16 11:05:01;;;;;;;;;0.00;0.00;;;;;7.76;68.57;97696.69;5073833;28;45407;-68
2023/01/16 11:07:29;;;;;;;;;3.25;0.00;;;;;7.71;67.99;97723.28;5074155;28;45310;-68
2023/01/16 11:09:55;;;;;;;;;0.00;0.00;;;;;7.69;69.55;97726.88;5074130;28;45478;-68
2023/01/16 11:18:36;;;;;;;;;1.00;0.00;;;;;7.56;69.86;97758.88;5074700;28;45385;-67
2023/01/16 11:21:16;;;;;;;;;1.00;0.00;;;;;7.63;70.01;97764.13;5058026;28;45463;-65
2023/01/16 11:23:46;;;;;;;;;0.00;0.00;;;;;7.67;69.50;97765.84;5074167;28;45405;-65
2023/01/16 11:26:12;;;;;;;;;0.00;0.00;;;;;7.68;69.50;97788.88;5073972;28;45326;-66
2023/01/16 11:28:37;;;;;;;;;0.00;0.00;;;;;7.65;69.44;97794.22;5062172;28;45516;-67
2023/01/16 11:31:17;;;;;;;;;0.00;0.00;;;;;7.53;70.87;97793.44;5072898;28;45332;-66
2023/01/16 11:33:57;;;;;;;;;1.00;1.00;;;;;7.51;70.31;97789.91;5074020;28;45514;-67
2023/01/16 11:36:24;;;;;;;;;0.75;0.00;;;;;7.54;70.78;97808.50;5073876;28;45283;-66
2023/01/16 11:38:51;;;;;;;;;1.00;1.00;;;;;7.54;70.25;97804.97;5054215;28;45391;-67
2023/01/16 11:41:27;;;;;;;;;1.00;1.00;;;;;7.51;71.96;97812.97;5074040;27;45451;-66
2023/01/16 11:47:00;;;;;;;;;2.00;0.00;;;;;7.71;70.93;97820.75;5073889;28;45512;-68
2023/01/16 11:49:40;;;;;;;;;0.75;0.25;;;;;7.72;70.71;97828.72;5075105;28;45571;-68
2023/01/16 11:52:13;;;;;;;;;1.00;1.00;;;;;7.13;70.31;97761.94;5075058;28;45359;-67
2023/01/16 11:54:38;;;;;;;;;0.50;0.00;;;;;7.83;69.76;97852.50;5055911;28;46271;-67
2023/01/16 11:57:32;;;;;;;;;9.75;8.50;;;;;7.85;70.21;97849.84;5079174;28;45279;-66
2023/01/16 12:00:16;;;;;;;;;0.00;0.00;;;;;7.86;70.10;97857.78;5079784;28;45477;-68
2023/01/16 12:03:02;;;;;;;;;0.00;0.00;;;;;7.82;69.61;97874.69;5077974;28;45270;-69
2023/01/16 12:05:56;;;;;;;;;0.50;0.00;;;;;7.75;68.91;97884.50;5065302;28;45454;-66
2023/01/16 12:08:41;;;;;;;;;0.00;0.00;;;;;7.71;68.69;97895.16;5057990;28;45913;-67
2023/01/16 12:11:14;;;;;;;;;0.00;0.00;;;;;7.47;69.46;97867.88;5075453;28;45453;-66
2023/01/16 12:14:20;;;;;;;;;1.00;1.00;;;;;7.71;68.77;97911.97;5056492;28;45311;-66
2023/01/16 12:17:23;;;;;;;;;0.00;0.00;;;;;7.76;68.44;97922.56;5064067;28;46025;-66
2023/01/16 12:20:26;;;;;;;;;2.50;1.00;;;;;7.86;68.24;97929.56;5076350;28;45469;-68
2023/01/16 12:23:12;;;;;;;;;2.00;0.00;;;;;7.94;67.52;97949.00;5054878;28;46335;-68
2023/01/16 12:26:15;;;;;;;;;1.00;0.00;;;;;7.92;67.23;97949.91;5075946;28;45649;-69
2023/01/16 12:29:35;;;;;;;;;0.50;0.50;;;;;7.86;67.00;97961.47;5030899;28;45382;-70
2023/01/16 12:32:18;;;;;;;;;0.00;0.00;;;;;7.84;67.84;97954.41;4986898;28;45643;-67
2023/01/16 12:34:49;;;;;;;;;0.00;0.00;;;;;7.81;68.32;97971.25;5065509;28;45324;-66
2023/01/16 12:37:33;;;;;;;;;2.00;0.00;;;;;7.83;68.95;97969.47;5058242;28;45534;-67
2023/01/16 12:43:17;;;;;;;;;1.50;0.75;;;;;7.84;69.64;97997.81;5076591;28;46306;-67
2023/01/16 12:43:57;;;;;;;;;5.00;2.00;;;;;7.95;68.58;97989.75;4993137;28;45504;-67
2023/01/16 12:47:16;;;;;;;;;0.00;0.00;;;;;7.96;67.87;98010.13;4992766;28;45445;-65
2023/01/16 12:50:03;;;;;;;;;0.00;0.00;;;;;7.96;68.76;98020.75;5016137;28;45606;-67
2023/01/16 12:52:37;;;;;;;;;2.00;0.00;;;;;7.88;68.66;98020.81;5070214;28;45568;-67
2023/01/16 12:55:35;;;;;;;;;4.75;3.00;;;;;7.83;68.78;98030.59;5074416;28;45565;-66
2023/01/16 12:58:15;;;;;;;;;0.75;0.75;;;;;7.52;70.02;97993.59;5069703;28;45503;-66
2023/01/16 13:00:49;;;;;;;;;0.75;0.75;;;;;7.79;69.65;98047.47;5068808;28;45551;-68